sensor_id;sensor_type;location;lat;lon;timestamp;P1;durP1;ratioP1;P2;durP2;ratioP2
46290;SDS011;32023;44.444;26.006;2023-02-03T00:01:53;10.68;;;6.07;;
46290;SDS011;32023;44.444;26.006;2023-02-03T00:04:19;14.90;;;5.18;;
46290;SDS011;32023;44.444;26.006;2023-02-03T00:09:38;11.55;;;5.57;;
46290;SDS011;32023;44.444;26.006;2023-02-03T00:12:04;9.02;;;4.70;;
46290;SDS011;32023;44.444;26.006;2023-02-03T00:14:31;13.02;;;5.07;;
46290;SDS011;32023;44.444;26.006;2023-02-03T00:16:58;10.13;;;5.15;;
46290;SDS011;32023;44.444;26.006;2023-02-03T00:19:24;10.57;;;5.18;;
46290;SDS011;32023;44.444;26.006;2023-02-03T00:21:51;9.02;;;4.57;;
46290;SDS011;32023;44.444;26.006;2023-02-03T00:24:17;8.13;;;4.88;;
46290;SDS011;32023;44.444;26.006;2023-02-03T00:26:44;9.45;;;5.13;;
46290;SDS011;32023;44.444;26.006;2023-02-03T00:29:11;11.57;;;4.82;;
46290;SDS011;32023;44.444;26.006;2023-02-03T00:31:38;11.40;;;4.85;;
46290;SDS011;32023;44.444;26.006;2023-02-03T00:34:05;8.95;;;4.45;;
46290;SDS011;32023;44.444;26.006;2023-02-03T00:36:32;9.82;;;4.57;;
46290;SDS011;32023;44.444;26.006;2023-02-03T00:38:59;7.35;;;3.95;;
46290;SDS011;32023;44.444;26.006;2023-02-03T00:41:27;9.23;;;5.22;;
46290;SDS011;32023;44.444;26.006;2023-02-03T00:44:01;13.13;;;6.25;;
46290;SDS011;32023;44.444;26.006;2023-02-03T00:46:28;15.93;;;6.75;;
46290;SDS011;32023;44.444;26.006;2023-02-03T00:48:54;10.95;;;6.30;;
46290;SDS011;32023;44.444;26.006;2023-02-03T00:51:21;11.52;;;5.45;;
46290;SDS011;32023;44.444;26.006;2023-02-03T00:53:47;10.15;;;5.22;;
46290;SDS011;32023;44.444;26.006;2023-02-03T00:56:14;13.38;;;6.03;;
46290;SDS011;32023;44.444;26.006;2023-02-03T00:58:40;11.63;;;5.85;;
46290;SDS011;32023;44.444;26.006;2023-02-03T01:01:06;13.13;;;5.97;;
46290;SDS011;32023;44.444;26.006;2023-02-03T01:03:33;13.88;;;6.68;;
46290;SDS011;32023;44.444;26.006;2023-02-03T01:06:13;11.27;;;6.35;;
46290;SDS011;32023;44.444;26.006;2023-02-03T01:08:46;9.93;;;6.05;;
46290;SDS011;32023;44.444;26.006;2023-02-03T01:11:15;11.45;;;6.40;;
46290;SDS011;32023;44.444;26.006;2023-02-03T01:13:46;11.25;;;5.68;;
46290;SDS011;32023;44.444;26.006;2023-02-03T01:16:16;11.20;;;5.75;;
46290;SDS011;32023;44.444;26.006;2023-02-03T01:18:44;10.50;;;4.75;;
46290;SDS011;32023;44.444;26.006;2023-02-03T01:21:12;11.63;;;6.30;;
46290;SDS011;32023;44.444;26.006;2023-02-03T01:23:48;13.20;;;6.43;;
46290;SDS011;32023;44.444;26.006;2023-02-03T01:26:16;12.38;;;6.28;;
46290;SDS011;32023;44.444;26.006;2023-02-03T01:28:53;10.07;;;5.82;;
46290;SDS011;32023;44.444;26.006;2023-02-03T01:31:22;16.00;;;6.18;;
46290;SDS011;32023;44.444;26.006;2023-02-03T01:33:54;12.32;;;6.68;;
46290;SDS011;32023;44.444;26.006;2023-02-03T01:36:22;13.75;;;6.30;;
46290;SDS011;32023;44.444;26.006;2023-02-03T01:38:50;10.95;;;5.57;;
46290;SDS011;32023;44.444;26.006;2023-02-03T01:41:20;12.52;;;6.70;;
46290;SDS011;32023;44.444;26.006;2023-02-03T01:43:50;17.92;;;6.60;;
46290;SDS011;32023;44.444;26.006;2023-02-03T01:48:53;11.15;;;5.70;;
46290;SDS011;32023;44.444;26.006;2023-02-03T01:51:32;13.05;;;6.00;;
46290;SDS011;32023;44.444;26.006;2023-02-03T01:56:35;11.85;;;5.82;;
46290;SDS011;32023;44.444;26.006;2023-02-03T01:59:06;11.02;;;5.20;;
46290;SDS011;32023;44.444;26.006;2023-02-03T02:01:33;10.75;;;5.22;;
46290;SDS011;32023;44.444;26.006;2023-02-03T02:04:01;11.15;;;5.10;;
46290;SDS011;32023;44.444;26.006;2023-02-03T02:06:30;11.30;;;5.13;;
46290;SDS011;32023;44.444;26.006;2023-02-03T02:08:58;12.18;;;5.60;;
46290;SDS011;32023;44.444;26.006;2023-02-03T02:11:25;15.23;;;5.20;;
46290;SDS011;32023;44.444;26.006;2023-02-03T02:13:53;11.05;;;4.88;;
46290;SDS011;32023;44.444;26.006;2023-02-03T02:19:25;12.57;;;6.88;;
46290;SDS011;32023;44.444;26.006;2023-02-03T02:22:19;12.43;;;7.45;;
46290;SDS011;32023;44.444;26.006;2023-02-03T02:24:58;16.40;;;7.63;;
46290;SDS011;32023;44.444;26.006;2023-02-03T02:38:40;9.32;;;5.40;;
46290;SDS011;32023;44.444;26.006;2023-02-03T02:41:28;9.63;;;5.00;;
46290;SDS011;32023;44.444;26.006;2023-02-03T02:43:59;8.38;;;5.47;;
46290;SDS011;32023;44.444;26.006;2023-02-03T02:46:42;11.65;;;4.97;;
46290;SDS011;32023;44.444;26.006;2023-02-03T02:51:46;10.30;;;4.82;;
46290;SDS011;32023;44.444;26.006;2023-02-03T02:54:16;16.33;;;5.40;;
46290;SDS011;32023;44.444;26.006;2023-02-03T02:56:49;9.95;;;4.70;;
46290;SDS011;32023;44.444;26.006;2023-02-03T02:59:19;9.02;;;4.65;;
46290;SDS011;32023;44.444;26.006;2023-02-03T03:01:48;8.38;;;4.88;;
46290;SDS011;32023;44.444;26.006;2023-02-03T03:04:15;12.43;;;6.10;;
46290;SDS011;32023;44.444;26.006;2023-02-03T03:06:47;10.27;;;4.93;;
46290;SDS011;32023;44.444;26.006;2023-02-03T03:09:29;11.00;;;4.68;;
46290;SDS011;32023;44.444;26.006;2023-02-03T03:12:17;12.10;;;4.63;;
46290;SDS011;32023;44.444;26.006;2023-02-03T03:14:53;11.15;;;4.78;;
46290;SDS011;32023;44.444;26.006;2023-02-03T03:17:26;13.13;;;5.00;;
46290;SDS011;32023;44.444;26.006;2023-02-03T03:20:01;10.60;;;4.68;;
46290;SDS011;32023;44.444;26.006;2023-02-03T03:22:36;9.65;;;4.97;;
46290;SDS011;32023;44.444;26.006;2023-02-03T03:25:16;9.27;;;4.97;;
46290;SDS011;32023;44.444;26.006;2023-02-03T03:27:50;9.68;;;4.40;;
46290;SDS011;32023;44.444;26.006;2023-02-03T03:30:23;7.15;;;4.13;;
46290;SDS011;32023;44.444;26.006;2023-02-03T03:35:23;10.45;;;4.18;;
46290;SDS011;32023;44.444;26.006;2023-02-03T03:37:59;8.43;;;4.50;;
46290;SDS011;32023;44.444;26.006;2023-02-03T03:40:48;11.63;;;5.47;;
46290;SDS011;32023;44.444;26.006;2023-02-03T03:43:23;12.57;;;4.85;;
46290;SDS011;32023;44.444;26.006;2023-02-03T03:53:50;9.45;;;4.45;;
46290;SDS011;32023;44.444;26.006;2023-02-03T03:56:28;9.32;;;4.28;;
46290;SDS011;32023;44.444;26.006;2023-02-03T03:58:58;8.45;;;3.80;;
46290;SDS011;32023;44.444;26.006;2023-02-03T04:01:28;9.65;;;4.70;;
46290;SDS011;32023;44.444;26.006;2023-02-03T04:03:58;9.02;;;3.85;;
46290;SDS011;32023;44.444;26.006;2023-02-03T04:06:31;7.90;;;4.78;;
46290;SDS011;32023;44.444;26.006;2023-02-03T04:08:59;8.10;;;4.55;;
46290;SDS011;32023;44.444;26.006;2023-02-03T04:11:26;10.50;;;5.65;;
46290;SDS011;32023;44.444;26.006;2023-02-03T04:14:11;9.57;;;4.80;;
46290;SDS011;32023;44.444;26.006;2023-02-03T04:16:37;13.18;;;5.03;;
46290;SDS011;32023;44.444;26.006;2023-02-03T04:19:03;12.52;;;5.60;;
46290;SDS011;32023;44.444;26.006;2023-02-03T04:21:30;8.68;;;4.90;;
46290;SDS011;32023;44.444;26.006;2023-02-03T04:23:56;9.38;;;4.82;;
46290;SDS011;32023;44.444;26.006;2023-02-03T04:26:22;11.98;;;4.22;;
46290;SDS011;32023;44.444;26.006;2023-02-03T04:28:49;8.75;;;4.10;;
46290;SDS011;32023;44.444;26.006;2023-02-03T04:31:16;11.35;;;4.88;;
46290;SDS011;32023;44.444;26.006;2023-02-03T04:33:47;11.40;;;5.22;;
46290;SDS011;32023;44.444;26.006;2023-02-03T04:36:13;8.93;;;4.70;;
46290;SDS011;32023;44.444;26.006;2023-02-03T04:38:39;9.68;;;5.57;;
46290;SDS011;32023;44.444;26.006;2023-02-03T04:41:06;8.00;;;4.68;;
46290;SDS011;32023;44.444;26.006;2023-02-03T04:43:32;9.27;;;4.13;;
46290;SDS011;32023;44.444;26.006;2023-02-03T04:45:59;13.63;;;4.75;;
46290;SDS011;32023;44.444;26.006;2023-02-03T04:48:26;9.40;;;5.10;;
46290;SDS011;32023;44.444;26.006;2023-02-03T04:50:52;12.43;;;4.97;;
46290;SDS011;32023;44.444;26.006;2023-02-03T04:53:18;11.23;;;5.07;;
46290;SDS011;32023;44.444;26.006;2023-02-03T04:55:53;11.15;;;5.60;;
46290;SDS011;32023;44.444;26.006;2023-02-03T05:01:04;18.65;;;6.05;;
46290;SDS011;32023;44.444;26.006;2023-02-03T05:03:32;14.15;;;6.18;;
46290;SDS011;32023;44.444;26.006;2023-02-03T05:06:33;12.98;;;5.72;;
46290;SDS011;32023;44.444;26.006;2023-02-03T05:09:00;14.73;;;6.10;;
46290;SDS011;32023;44.444;26.006;2023-02-03T05:11:26;13.48;;;6.13;;
46290;SDS011;32023;44.444;26.006;2023-02-03T05:13:52;14.27;;;6.57;;
46290;SDS011;32023;44.444;26.006;2023-02-03T05:16:19;10.30;;;5.32;;
46290;SDS011;32023;44.444;26.006;2023-02-03T05:18:48;11.68;;;4.88;;
46290;SDS011;32023;44.444;26.006;2023-02-03T05:21:20;11.35;;;5.63;;
46290;SDS011;32023;44.444;26.006;2023-02-03T05:26:19;12.35;;;5.50;;
46290;SDS011;32023;44.444;26.006;2023-02-03T05:31:44;11.15;;;4.97;;
46290;SDS011;32023;44.444;26.006;2023-02-03T05:37:03;15.10;;;6.80;;
46290;SDS011;32023;44.444;26.006;2023-02-03T05:39:29;13.13;;;6.47;;
46290;SDS011;32023;44.444;26.006;2023-02-03T05:41:56;23.00;;;8.00;;
46290;SDS011;32023;44.444;26.006;2023-02-03T05:44:30;16.63;;;7.47;;
46290;SDS011;32023;44.444;26.006;2023-02-03T05:46:57;17.35;;;7.35;;
46290;SDS011;32023;44.444;26.006;2023-02-03T05:49:24;12.93;;;6.63;;
46290;SDS011;32023;44.444;26.006;2023-02-03T05:51:51;16.38;;;8.25;;
46290;SDS011;32023;44.444;26.006;2023-02-03T05:54:30;13.68;;;7.03;;
46290;SDS011;32023;44.444;26.006;2023-02-03T05:57:12;16.25;;;7.35;;
46290;SDS011;32023;44.444;26.006;2023-02-03T05:59:38;16.10;;;7.15;;
46290;SDS011;32023;44.444;26.006;2023-02-03T06:02:04;14.35;;;7.47;;
46290;SDS011;32023;44.444;26.006;2023-02-03T06:04:31;17.95;;;7.88;;
46290;SDS011;32023;44.444;26.006;2023-02-03T06:06:57;15.38;;;8.02;;
46290;SDS011;32023;44.444;26.006;2023-02-03T06:09:24;12.70;;;7.45;;
46290;SDS011;32023;44.444;26.006;2023-02-03T06:11:59;15.30;;;8.35;;
46290;SDS011;32023;44.444;26.006;2023-02-03T06:14:25;12.27;;;7.22;;
46290;SDS011;32023;44.444;26.006;2023-02-03T06:16:52;16.80;;;7.93;;
46290;SDS011;32023;44.444;26.006;2023-02-03T06:19:21;16.75;;;7.47;;
46290;SDS011;32023;44.444;26.006;2023-02-03T06:21:47;17.13;;;7.70;;
46290;SDS011;32023;44.444;26.006;2023-02-03T06:24:31;17.75;;;8.65;;
46290;SDS011;32023;44.444;26.006;2023-02-03T06:29:27;15.95;;;8.20;;
46290;SDS011;32023;44.444;26.006;2023-02-03T06:31:54;16.35;;;8.15;;
46290;SDS011;32023;44.444;26.006;2023-02-03T06:34:21;18.50;;;8.27;;
46290;SDS011;32023;44.444;26.006;2023-02-03T06:36:47;15.65;;;8.05;;
46290;SDS011;32023;44.444;26.006;2023-02-03T06:39:16;17.13;;;8.23;;
46290;SDS011;32023;44.444;26.006;2023-02-03T06:41:43;16.08;;;7.90;;
46290;SDS011;32023;44.444;26.006;2023-02-03T06:44:09;16.52;;;8.05;;
46290;SDS011;32023;44.444;26.006;2023-02-03T06:46:36;15.60;;;7.90;;
46290;SDS011;32023;44.444;26.006;2023-02-03T06:49:04;17.30;;;8.30;;
46290;SDS011;32023;44.444;26.006;2023-02-03T06:51:30;14.50;;;8.05;;
46290;SDS011;32023;44.444;26.006;2023-02-03T06:53:57;19.65;;;9.27;;
46290;SDS011;32023;44.444;26.006;2023-02-03T06:56:23;22.23;;;9.77;;
46290;SDS011;32023;44.444;26.006;2023-02-03T06:58:50;17.70;;;9.48;;
46290;SDS011;32023;44.444;26.006;2023-02-03T07:01:16;16.70;;;8.98;;
46290;SDS011;32023;44.444;26.006;2023-02-03T07:03:42;20.63;;;10.43;;
46290;SDS011;32023;44.444;26.006;2023-02-03T07:06:12;21.13;;;9.35;;
46290;SDS011;32023;44.444;26.006;2023-02-03T07:08:39;18.20;;;10.43;;
46290;SDS011;32023;44.444;26.006;2023-02-03T07:11:05;19.90;;;11.13;;
46290;SDS011;32023;44.444;26.006;2023-02-03T07:13:32;22.13;;;11.43;;
46290;SDS011;32023;44.444;26.006;2023-02-03T07:15:58;23.15;;;11.13;;
46290;SDS011;32023;44.444;26.006;2023-02-03T07:18:25;20.70;;;9.98;;
46290;SDS011;32023;44.444;26.006;2023-02-03T07:20:51;24.23;;;11.85;;
46290;SDS011;32023;44.444;26.006;2023-02-03T07:23:18;20.88;;;10.85;;
46290;SDS011;32023;44.444;26.006;2023-02-03T07:25:44;23.75;;;10.23;;
46290;SDS011;32023;44.444;26.006;2023-02-03T07:28:10;21.38;;;10.23;;
46290;SDS011;32023;44.444;26.006;2023-02-03T07:30:37;19.80;;;10.30;;
46290;SDS011;32023;44.444;26.006;2023-02-03T07:33:03;20.27;;;9.85;;
46290;SDS011;32023;44.444;26.006;2023-02-03T07:35:29;19.95;;;10.63;;
46290;SDS011;32023;44.444;26.006;2023-02-03T07:37:59;18.02;;;10.55;;
46290;SDS011;32023;44.444;26.006;2023-02-03T07:40:25;15.20;;;9.25;;
46290;SDS011;32023;44.444;26.006;2023-02-03T07:42:51;16.50;;;9.57;;
46290;SDS011;32023;44.444;26.006;2023-02-03T07:45:18;22.58;;;10.32;;
46290;SDS011;32023;44.444;26.006;2023-02-03T07:47:46;17.70;;;10.98;;
46290;SDS011;32023;44.444;26.006;2023-02-03T07:50:12;22.13;;;11.23;;
46290;SDS011;32023;44.444;26.006;2023-02-03T07:52:38;23.88;;;11.30;;
46290;SDS011;32023;44.444;26.006;2023-02-03T07:55:05;19.85;;;11.13;;
46290;SDS011;32023;44.444;26.006;2023-02-03T07:57:31;20.80;;;10.77;;
46290;SDS011;32023;44.444;26.006;2023-02-03T07:59:58;18.65;;;10.60;;
46290;SDS011;32023;44.444;26.006;2023-02-03T08:02:24;27.17;;;12.63;;
46290;SDS011;32023;44.444;26.006;2023-02-03T08:04:51;23.98;;;11.43;;
46290;SDS011;32023;44.444;26.006;2023-02-03T08:07:17;21.55;;;10.75;;
46290;SDS011;32023;44.444;26.006;2023-02-03T08:09:43;21.23;;;11.57;;
46290;SDS011;32023;44.444;26.006;2023-02-03T08:12:10;19.38;;;11.18;;
46290;SDS011;32023;44.444;26.006;2023-02-03T08:14:36;21.58;;;10.27;;
46290;SDS011;32023;44.444;26.006;2023-02-03T08:17:02;23.63;;;12.93;;
46290;SDS011;32023;44.444;26.006;2023-02-03T08:19:33;23.35;;;11.13;;
46290;SDS011;32023;44.444;26.006;2023-02-03T08:21:59;17.23;;;11.23;;
46290;SDS011;32023;44.444;26.006;2023-02-03T08:36:34;20.85;;;12.75;;
46290;SDS011;32023;44.444;26.006;2023-02-03T08:39:04;22.33;;;13.02;;
46290;SDS011;32023;44.444;26.006;2023-02-03T08:41:30;23.45;;;13.20;;
46290;SDS011;32023;44.444;26.006;2023-02-03T08:43:58;25.02;;;13.30;;
46290;SDS011;32023;44.444;26.006;2023-02-03T08:46:25;27.33;;;13.75;;
46290;SDS011;32023;44.444;26.006;2023-02-03T08:48:53;26.88;;;12.90;;
46290;SDS011;32023;44.444;26.006;2023-02-03T08:51:20;26.38;;;14.32;;
46290;SDS011;32023;44.444;26.006;2023-02-03T08:53:49;22.73;;;12.75;;
46290;SDS011;32023;44.444;26.006;2023-02-03T08:56:16;21.90;;;11.82;;
46290;SDS011;32023;44.444;26.006;2023-02-03T08:58:42;20.60;;;12.32;;
46290;SDS011;32023;44.444;26.006;2023-02-03T09:01:12;21.02;;;12.07;;
46290;SDS011;32023;44.444;26.006;2023-02-03T09:03:39;24.35;;;11.90;;
46290;SDS011;32023;44.444;26.006;2023-02-03T09:06:06;20.15;;;11.48;;
46290;SDS011;32023;44.444;26.006;2023-02-03T09:08:38;21.27;;;11.63;;
46290;SDS011;32023;44.444;26.006;2023-02-03T09:11:09;18.75;;;11.35;;
46290;SDS011;32023;44.444;26.006;2023-02-03T09:13:41;20.08;;;10.93;;
46290;SDS011;32023;44.444;26.006;2023-02-03T09:16:14;21.23;;;11.95;;
46290;SDS011;32023;44.444;26.006;2023-02-03T09:21:13;26.58;;;11.73;;
46290;SDS011;32023;44.444;26.006;2023-02-03T09:23:40;20.42;;;11.88;;
46290;SDS011;32023;44.444;26.006;2023-02-03T09:26:09;21.20;;;12.50;;
46290;SDS011;32023;44.444;26.006;2023-02-03T09:28:37;16.42;;;10.48;;
46290;SDS011;32023;44.444;26.006;2023-02-03T09:31:05;21.17;;;9.82;;
46290;SDS011;32023;44.444;26.006;2023-02-03T09:33:34;21.38;;;11.20;;
46290;SDS011;32023;44.444;26.006;2023-02-03T09:36:00;23.15;;;12.38;;
46290;SDS011;32023;44.444;26.006;2023-02-03T09:38:28;23.33;;;12.93;;
46290;SDS011;32023;44.444;26.006;2023-02-03T09:40:59;31.10;;;13.50;;
46290;SDS011;32023;44.444;26.006;2023-02-03T09:46:28;22.95;;;11.70;;
46290;SDS011;32023;44.444;26.006;2023-02-03T09:49:05;20.85;;;12.02;;
46290;SDS011;32023;44.444;26.006;2023-02-03T09:51:43;27.17;;;14.00;;
46290;SDS011;32023;44.444;26.006;2023-02-03T09:56:58;27.75;;;13.82;;
46290;SDS011;32023;44.444;26.006;2023-02-03T09:59:30;29.58;;;14.55;;
46290;SDS011;32023;44.444;26.006;2023-02-03T10:05:21;23.25;;;12.00;;
46290;SDS011;32023;44.444;26.006;2023-02-03T10:10:57;19.90;;;11.10;;
46290;SDS011;32023;44.444;26.006;2023-02-03T10:19:48;19.60;;;11.02;;
46290;SDS011;32023;44.444;26.006;2023-02-03T10:22:28;25.20;;;12.02;;
46290;SDS011;32023;44.444;26.006;2023-02-03T10:27:30;18.15;;;8.85;;
46290;SDS011;32023;44.444;26.006;2023-02-03T10:30:44;20.27;;;10.00;;
46290;SDS011;32023;44.444;26.006;2023-02-03T10:40:50;24.15;;;11.43;;
46290;SDS011;32023;44.444;26.006;2023-02-03T10:44:01;14.52;;;11.00;;
46290;SDS011;32023;44.444;26.006;2023-02-03T10:53:33;10.40;;;6.00;;
46290;SDS011;32023;44.444;26.006;2023-02-03T10:56:19;14.23;;;6.05;;
46290;SDS011;32023;44.444;26.006;2023-02-03T10:58:56;16.40;;;10.35;;
46290;SDS011;32023;44.444;26.006;2023-02-03T11:01:46;12.15;;;7.35;;
46290;SDS011;32023;44.444;26.006;2023-02-03T11:07:06;15.52;;;14.23;;
46290;SDS011;32023;44.444;26.006;2023-02-03T11:09:51;56.50;;;52.85;;
46290;SDS011;32023;44.444;26.006;2023-02-03T11:12:18;47.47;;;44.55;;
46290;SDS011;32023;44.444;26.006;2023-02-03T11:14:51;24.10;;;22.23;;
46290;SDS011;32023;44.444;26.006;2023-02-03T11:33:50;21.20;;;19.63;;
46290;SDS011;32023;44.444;26.006;2023-02-03T11:36:33;19.98;;;18.75;;
46290;SDS011;32023;44.444;26.006;2023-02-03T11:45:06;11.65;;;10.93;;
46290;SDS011;32023;44.444;26.006;2023-02-03T11:51:22;5.25;;;4.75;;
46290;SDS011;32023;44.444;26.006;2023-02-03T12:02:35;7.47;;;6.88;;
46290;SDS011;32023;44.444;26.006;2023-02-03T12:11:01;7.95;;;6.95;;
46290;SDS011;32023;44.444;26.006;2023-02-03T12:21:44;6.70;;;6.07;;
46290;SDS011;32023;44.444;26.006;2023-02-03T12:24:53;7.15;;;6.30;;
46290;SDS011;32023;44.444;26.006;2023-02-03T12:29:57;5.80;;;5.30;;
46290;SDS011;32023;44.444;26.006;2023-02-03T12:32:39;5.85;;;5.22;;
46290;SDS011;32023;44.444;26.006;2023-02-03T12:38:12;6.55;;;5.28;;
46290;SDS011;32023;44.444;26.006;2023-02-03T12:41:05;5.20;;;4.13;;
46290;SDS011;32023;44.444;26.006;2023-02-03T12:43:50;5.60;;;4.30;;
46290;SDS011;32023;44.444;26.006;2023-02-03T13:06:14;6.72;;;3.00;;
46290;SDS011;32023;44.444;26.006;2023-02-03T13:20:47;6.28;;;3.38;;
46290;SDS011;32023;44.444;26.006;2023-02-03T13:23:14;4.63;;;2.67;;
46290;SDS011;32023;44.444;26.006;2023-02-03T13:40:35;4.40;;;2.20;;
46290;SDS011;32023;44.444;26.006;2023-02-03T13:43:37;5.10;;;3.13;;
46290;SDS011;32023;44.444;26.006;2023-02-03T13:46:33;6.18;;;2.72;;
46290;SDS011;32023;44.444;26.006;2023-02-03T13:49:04;7.35;;;2.83;;
46290;SDS011;32023;44.444;26.006;2023-02-03T13:51:59;4.55;;;2.58;;
46290;SDS011;32023;44.444;26.006;2023-02-03T14:10:19;5.47;;;3.17;;
46290;SDS011;32023;44.444;26.006;2023-02-03T14:12:53;10.25;;;3.58;;
46290;SDS011;32023;44.444;26.006;2023-02-03T14:21:21;6.70;;;2.95;;
46290;SDS011;32023;44.444;26.006;2023-02-03T14:24:09;6.30;;;3.08;;
46290;SDS011;32023;44.444;26.006;2023-02-03T14:27:16;5.97;;;2.80;;
46290;SDS011;32023;44.444;26.006;2023-02-03T14:30:16;14.40;;;3.38;;
46290;SDS011;32023;44.444;26.006;2023-02-03T14:36:24;6.95;;;3.05;;
46290;SDS011;32023;44.444;26.006;2023-02-03T14:39:04;11.90;;;4.18;;
46290;SDS011;32023;44.444;26.006;2023-02-03T14:42:22;16.23;;;4.07;;
46290;SDS011;32023;44.444;26.006;2023-02-03T14:45:09;12.73;;;4.43;;
46290;SDS011;32023;44.444;26.006;2023-02-03T14:57:04;8.23;;;4.13;;
46290;SDS011;32023;44.444;26.006;2023-02-03T15:00:02;12.48;;;4.03;;
46290;SDS011;32023;44.444;26.006;2023-02-03T15:05:44;11.98;;;4.25;;
46290;SDS011;32023;44.444;26.006;2023-02-03T15:14:17;10.20;;;5.25;;
46290;SDS011;32023;44.444;26.006;2023-02-03T15:16:57;9.20;;;4.68;;
46290;SDS011;32023;44.444;26.006;2023-02-03T15:19:32;14.07;;;5.38;;
46290;SDS011;32023;44.444;26.006;2023-02-03T15:22:15;12.57;;;5.57;;
46290;SDS011;32023;44.444;26.006;2023-02-03T15:24:47;14.02;;;6.28;;
46290;SDS011;32023;44.444;26.006;2023-02-03T15:27:35;10.15;;;6.15;;
46290;SDS011;32023;44.444;26.006;2023-02-03T15:30:20;12.77;;;6.50;;
46290;SDS011;32023;44.444;26.006;2023-02-03T15:33:14;17.90;;;8.30;;
46290;SDS011;32023;44.444;26.006;2023-02-03T15:38:19;10.93;;;5.97;;
46290;SDS011;32023;44.444;26.006;2023-02-03T15:40:53;8.27;;;4.68;;
46290;SDS011;32023;44.444;26.006;2023-02-03T15:43:27;9.05;;;4.30;;
46290;SDS011;32023;44.444;26.006;2023-02-03T15:57:54;9.88;;;4.88;;
46290;SDS011;32023;44.444;26.006;2023-02-03T16:03:05;8.48;;;5.35;;
46290;SDS011;32023;44.444;26.006;2023-02-03T16:14:51;9.30;;;5.53;;
46290;SDS011;32023;44.444;26.006;2023-02-03T16:22:37;9.45;;;4.95;;
46290;SDS011;32023;44.444;26.006;2023-02-03T16:25:26;9.90;;;4.70;;
46290;SDS011;32023;44.444;26.006;2023-02-03T16:27:55;7.90;;;4.90;;
46290;SDS011;32023;44.444;26.006;2023-02-03T16:31:02;6.80;;;5.05;;
46290;SDS011;32023;44.444;26.006;2023-02-03T16:33:52;8.55;;;5.30;;
46290;SDS011;32023;44.444;26.006;2023-02-03T16:36:41;13.18;;;5.95;;
46290;SDS011;32023;44.444;26.006;2023-02-03T16:39:29;10.75;;;5.43;;
46290;SDS011;32023;44.444;26.006;2023-02-03T16:42:20;16.45;;;5.88;;
46290;SDS011;32023;44.444;26.006;2023-02-03T16:45:12;8.32;;;5.50;;
46290;SDS011;32023;44.444;26.006;2023-02-03T16:47:59;12.07;;;6.80;;
46290;SDS011;32023;44.444;26.006;2023-02-03T16:50:45;13.45;;;5.78;;
46290;SDS011;32023;44.444;26.006;2023-02-03T16:53:19;14.93;;;7.13;;
46290;SDS011;32023;44.444;26.006;2023-02-03T16:55:49;15.70;;;7.07;;
46290;SDS011;32023;44.444;26.006;2023-02-03T16:58:20;18.10;;;7.47;;
46290;SDS011;32023;44.444;26.006;2023-02-03T17:00:47;13.75;;;6.75;;
46290;SDS011;32023;44.444;26.006;2023-02-03T17:03:37;12.18;;;7.20;;
46290;SDS011;32023;44.444;26.006;2023-02-03T17:06:06;14.05;;;8.18;;
46290;SDS011;32023;44.444;26.006;2023-02-03T17:08:54;16.60;;;8.70;;
46290;SDS011;32023;44.444;26.006;2023-02-03T17:11:29;18.88;;;8.68;;
46290;SDS011;32023;44.444;26.006;2023-02-03T17:13:58;14.57;;;7.90;;
46290;SDS011;32023;44.444;26.006;2023-02-03T17:16:28;14.23;;;8.13;;
46290;SDS011;32023;44.444;26.006;2023-02-03T17:18:57;13.15;;;7.25;;
46290;SDS011;32023;44.444;26.006;2023-02-03T17:21:27;15.50;;;7.25;;
46290;SDS011;32023;44.444;26.006;2023-02-03T17:23:57;14.63;;;7.20;;
46290;SDS011;32023;44.444;26.006;2023-02-03T17:26:26;12.25;;;7.18;;
46290;SDS011;32023;44.444;26.006;2023-02-03T17:28:58;11.15;;;6.25;;
46290;SDS011;32023;44.444;26.006;2023-02-03T17:31:31;11.45;;;7.13;;
46290;SDS011;32023;44.444;26.006;2023-02-03T17:33:57;9.82;;;5.90;;
46290;SDS011;32023;44.444;26.006;2023-02-03T17:36:27;11.48;;;6.60;;
46290;SDS011;32023;44.444;26.006;2023-02-03T17:38:54;10.43;;;6.07;;
46290;SDS011;32023;44.444;26.006;2023-02-03T17:41:23;10.25;;;6.28;;
46290;SDS011;32023;44.444;26.006;2023-02-03T17:43:57;13.35;;;6.50;;
46290;SDS011;32023;44.444;26.006;2023-02-03T17:46:31;12.32;;;6.65;;
46290;SDS011;32023;44.444;26.006;2023-02-03T17:49:00;11.23;;;6.93;;
46290;SDS011;32023;44.444;26.006;2023-02-03T17:51:29;12.63;;;7.57;;
46290;SDS011;32023;44.444;26.006;2023-02-03T17:53:57;10.70;;;6.55;;
46290;SDS011;32023;44.444;26.006;2023-02-03T17:56:30;11.95;;;6.30;;
46290;SDS011;32023;44.444;26.006;2023-02-03T17:59:00;11.25;;;6.53;;
46290;SDS011;32023;44.444;26.006;2023-02-03T18:01:34;13.68;;;7.65;;
46290;SDS011;32023;44.444;26.006;2023-02-03T18:04:10;9.52;;;6.00;;
46290;SDS011;32023;44.444;26.006;2023-02-03T18:06:39;10.20;;;5.90;;
46290;SDS011;32023;44.444;26.006;2023-02-03T18:09:23;12.40;;;6.15;;
46290;SDS011;32023;44.444;26.006;2023-02-03T18:14:50;10.75;;;5.82;;
46290;SDS011;32023;44.444;26.006;2023-02-03T18:17:19;8.05;;;5.57;;
46290;SDS011;32023;44.444;26.006;2023-02-03T18:19:45;9.35;;;5.45;;
46290;SDS011;32023;44.444;26.006;2023-02-03T18:22:14;7.18;;;5.18;;
46290;SDS011;32023;44.444;26.006;2023-02-03T18:24:41;12.38;;;5.28;;
46290;SDS011;32023;44.444;26.006;2023-02-03T18:30:07;10.52;;;5.47;;
46290;SDS011;32023;44.444;26.006;2023-02-03T18:35:35;9.05;;;5.80;;
46290;SDS011;32023;44.444;26.006;2023-02-03T18:38:02;13.88;;;5.57;;
46290;SDS011;32023;44.444;26.006;2023-02-03T18:40:28;13.20;;;6.85;;
46290;SDS011;32023;44.444;26.006;2023-02-03T18:42:58;10.05;;;5.50;;
46290;SDS011;32023;44.444;26.006;2023-02-03T18:45:31;9.68;;;5.70;;
46290;SDS011;32023;44.444;26.006;2023-02-03T18:48:02;10.07;;;5.63;;
46290;SDS011;32023;44.444;26.006;2023-02-03T18:50:28;9.57;;;5.65;;
46290;SDS011;32023;44.444;26.006;2023-02-03T18:52:55;9.68;;;5.15;;
46290;SDS011;32023;44.444;26.006;2023-02-03T18:55:26;8.93;;;5.68;;
46290;SDS011;32023;44.444;26.006;2023-02-03T18:57:52;12.38;;;5.40;;
46290;SDS011;32023;44.444;26.006;2023-02-03T19:00:25;10.48;;;5.60;;
46290;SDS011;32023;44.444;26.006;2023-02-03T19:02:56;12.95;;;6.32;;
46290;SDS011;32023;44.444;26.006;2023-02-03T19:05:23;13.68;;;5.32;;
46290;SDS011;32023;44.444;26.006;2023-02-03T19:07:52;8.93;;;5.20;;
46290;SDS011;32023;44.444;26.006;2023-02-03T19:10:18;6.80;;;4.63;;
46290;SDS011;32023;44.444;26.006;2023-02-03T19:12:45;14.43;;;5.80;;
46290;SDS011;32023;44.444;26.006;2023-02-03T19:15:14;9.00;;;5.57;;
46290;SDS011;32023;44.444;26.006;2023-02-03T19:17:42;14.48;;;6.05;;
46290;SDS011;32023;44.444;26.006;2023-02-03T19:20:09;9.43;;;5.55;;
46290;SDS011;32023;44.444;26.006;2023-02-03T19:22:35;7.78;;;5.70;;
46290;SDS011;32023;44.444;26.006;2023-02-03T19:25:07;14.48;;;7.40;;
46290;SDS011;32023;44.444;26.006;2023-02-03T19:27:33;12.10;;;7.25;;
46290;SDS011;32023;44.444;26.006;2023-02-03T19:30:16;15.93;;;7.93;;
46290;SDS011;32023;44.444;26.006;2023-02-03T19:32:45;11.35;;;5.90;;
46290;SDS011;32023;44.444;26.006;2023-02-03T19:35:12;9.68;;;5.88;;
46290;SDS011;32023;44.444;26.006;2023-02-03T19:37:42;13.80;;;6.07;;